sensor_id;sensor_type;location;lat;lon;timestamp;P1;durP1;ratioP1;P2;durP2;ratioP2
45252;SDS011;63171;50.520;30.486;2022-12-11T03:41:32;38.13;;;21.05;;
45252;SDS011;63171;50.520;30.486;2022-12-11T03:42:25;32.60;;;21.13;;
45252;SDS011;63171;50.520;30.486;2022-12-11T03:43:17;53.00;;;18.95;;
45252;SDS011;63171;50.520;30.486;2022-12-11T03:44:08;36.35;;;20.70;;
45252;SDS011;63171;50.520;30.486;2022-12-11T03:45:00;31.77;;;20.15;;
45252;SDS011;63171;50.520;30.486;2022-12-11T03:45:52;47.75;;;20.58;;
45252;SDS011;63171;50.520;30.486;2022-12-11T03:46:44;41.53;;;22.13;;
45252;SDS011;63171;50.520;30.486;2022-12-11T03:47:36;37.08;;;19.95;;
45252;SDS011;63171;50.520;30.486;2022-12-11T03:48:29;59.78;;;19.50;;
45252;SDS011;63171;50.520;30.486;2022-12-11T03:49:25;32.50;;;20.67;;
45252;SDS011;63171;50.520;30.486;2022-12-11T03:50:18;36.10;;;20.25;;
45252;SDS011;63171;50.520;30.486;2022-12-11T03:51:09;46.35;;;19.60;;
45252;SDS011;63171;50.520;30.486;2022-12-11T03:52:01;40.28;;;18.58;;
45252;SDS011;63171;50.520;30.486;2022-12-11T03:53:42;30.60;;;18.83;;
45252;SDS011;63171;50.520;30.486;2022-12-11T03:54:34;40.28;;;20.38;;
45252;SDS011;63171;50.520;30.486;2022-12-11T03:55:27;63.55;;;20.02;;
45252;SDS011;63171;50.520;30.486;2022-12-11T03:56:20;38.90;;;19.15;;
45252;SDS011;63171;50.520;30.486;2022-12-11T03:57:13;27.48;;;19.05;;
45252;SDS011;63171;50.520;30.486;2022-12-11T03:58:08;42.58;;;18.52;;
45252;SDS011;63171;50.520;30.486;2022-12-11T03:58:58;26.00;;;19.17;;
45252;SDS011;63171;50.520;30.486;2022-12-11T03:59:48;27.67;;;18.98;;
45252;SDS011;63171;50.520;30.486;2022-12-11T04:00:39;30.27;;;18.27;;
45252;SDS011;63171;50.520;30.486;2022-12-11T04:01:29;30.00;;;20.42;;
45252;SDS011;63171;50.520;30.486;2022-12-11T04:02:20;32.83;;;20.70;;
45252;SDS011;63171;50.520;30.486;2022-12-11T04:03:10;30.67;;;19.45;;
45252;SDS011;63171;50.520;30.486;2022-12-11T04:04:04;32.33;;;18.38;;
45252;SDS011;63171;50.520;30.486;2022-12-11T04:04:54;30.63;;;20.23;;
45252;SDS011;63171;50.520;30.486;2022-12-11T04:05:46;42.30;;;20.05;;
45252;SDS011;63171;50.520;30.486;2022-12-11T04:06:37;25.80;;;18.10;;
45252;SDS011;63171;50.520;30.486;2022-12-11T04:07:28;23.92;;;19.33;;
45252;SDS011;63171;50.520;30.486;2022-12-11T04:08:23;24.15;;;18.15;;
45252;SDS011;63171;50.520;30.486;2022-12-11T04:09:13;20.48;;;17.67;;
45252;SDS011;63171;50.520;30.486;2022-12-11T04:10:04;32.35;;;18.85;;
45252;SDS011;63171;50.520;30.486;2022-12-11T04:10:56;35.92;;;20.70;;
45252;SDS011;63171;50.520;30.486;2022-12-11T04:12:02;29.27;;;19.55;;
45252;SDS011;63171;50.520;30.486;2022-12-11T04:12:52;26.10;;;19.33;;
45252;SDS011;63171;50.520;30.486;2022-12-11T04:13:42;28.45;;;19.17;;
45252;SDS011;63171;50.520;30.486;2022-12-11T04:14:33;27.52;;;19.85;;
45252;SDS011;63171;50.520;30.486;2022-12-11T04:15:41;39.08;;;20.20;;
45252;SDS011;63171;50.520;30.486;2022-12-11T04:16:31;32.05;;;19.92;;
45252;SDS011;63171;50.520;30.486;2022-12-11T04:17:21;29.33;;;19.85;;
45252;SDS011;63171;50.520;30.486;2022-12-11T04:18:25;33.55;;;19.05;;
45252;SDS011;63171;50.520;30.486;2022-12-11T04:19:34;36.08;;;18.95;;
45252;SDS011;63171;50.520;30.486;2022-12-11T04:20:38;52.15;;;19.38;;
45252;SDS011;63171;50.520;30.486;2022-12-11T04:21:47;33.53;;;18.38;;
45252;SDS011;63171;50.520;30.486;2022-12-11T04:22:51;25.80;;;18.20;;
45252;SDS011;63171;50.520;30.486;2022-12-11T04:24:00;28.10;;;18.30;;
45252;SDS011;63171;50.520;30.486;2022-12-11T04:25:06;39.92;;;18.27;;
45252;SDS011;63171;50.520;30.486;2022-12-11T04:26:01;32.83;;;19.45;;
45252;SDS011;63171;50.520;30.486;2022-12-11T04:26:53;33.95;;;18.77;;
45252;SDS011;63171;50.520;30.486;2022-12-11T04:27:44;29.23;;;18.35;;
45252;SDS011;63171;50.520;30.486;2022-12-11T04:28:40;39.85;;;19.30;;
45252;SDS011;63171;50.520;30.486;2022-12-11T04:29:31;35.30;;;18.60;;
45252;SDS011;63171;50.520;30.486;2022-12-11T04:30:23;33.65;;;19.88;;
45252;SDS011;63171;50.520;30.486;2022-12-11T04:31:15;41.70;;;19.20;;
45252;SDS011;63171;50.520;30.486;2022-12-11T04:32:06;27.00;;;19.40;;
45252;SDS011;63171;50.520;30.486;2022-12-11T04:32:57;27.90;;;18.88;;
45252;SDS011;63171;50.520;30.486;2022-12-11T04:33:47;27.75;;;19.58;;
45252;SDS011;63171;50.520;30.486;2022-12-11T04:34:38;35.13;;;18.27;;
45252;SDS011;63171;50.520;30.486;2022-12-11T04:35:28;26.67;;;19.17;;
45252;SDS011;63171;50.520;30.486;2022-12-11T04:36:19;22.83;;;18.08;;
45252;SDS011;63171;50.520;30.486;2022-12-11T04:37:09;26.48;;;19.10;;
45252;SDS011;63171;50.520;30.486;2022-12-11T04:38:00;36.03;;;19.58;;
45252;SDS011;63171;50.520;30.486;2022-12-11T04:38:49;36.65;;;19.08;;
45252;SDS011;63171;50.520;30.486;2022-12-11T04:39:40;30.77;;;18.65;;
45252;SDS011;63171;50.520;30.486;2022-12-11T04:40:30;21.90;;;17.20;;
45252;SDS011;63171;50.520;30.486;2022-12-11T04:41:20;28.88;;;18.15;;
45252;SDS011;63171;50.520;30.486;2022-12-11T04:42:10;27.13;;;19.17;;
45252;SDS011;63171;50.520;30.486;2022-12-11T04:43:02;22.63;;;16.55;;
45252;SDS011;63171;50.520;30.486;2022-12-11T04:43:52;50.58;;;18.50;;
45252;SDS011;63171;50.520;30.486;2022-12-11T04:44:43;31.20;;;18.45;;
45252;SDS011;63171;50.520;30.486;2022-12-11T04:45:33;23.50;;;17.75;;
45252;SDS011;63171;50.520;30.486;2022-12-11T04:46:24;20.33;;;16.35;;
45252;SDS011;63171;50.520;30.486;2022-12-11T04:47:13;26.65;;;18.40;;
45252;SDS011;63171;50.520;30.486;2022-12-11T04:48:04;45.05;;;19.13;;
45252;SDS011;63171;50.520;30.486;2022-12-11T04:48:55;32.65;;;18.45;;
45252;SDS011;63171;50.520;30.486;2022-12-11T04:49:46;22.13;;;15.68;;
45252;SDS011;63171;50.520;30.486;2022-12-11T04:50:35;31.45;;;16.40;;
45252;SDS011;63171;50.520;30.486;2022-12-11T04:51:26;29.30;;;17.40;;
45252;SDS011;63171;50.520;30.486;2022-12-11T04:52:17;31.05;;;15.45;;
45252;SDS011;63171;50.520;30.486;2022-12-11T04:53:08;22.50;;;16.95;;
45252;SDS011;63171;50.520;30.486;2022-12-11T04:53:58;21.83;;;16.20;;
45252;SDS011;63171;50.520;30.486;2022-12-11T04:54:48;26.40;;;16.55;;
45252;SDS011;63171;50.520;30.486;2022-12-11T04:55:39;24.65;;;16.60;;
45252;SDS011;63171;50.520;30.486;2022-12-11T04:56:30;25.00;;;15.68;;
45252;SDS011;63171;50.520;30.486;2022-12-11T04:57:19;23.77;;;15.18;;
45252;SDS011;63171;50.520;30.486;2022-12-11T04:58:12;25.25;;;15.63;;
45252;SDS011;63171;50.520;30.486;2022-12-11T04:59:01;19.92;;;14.63;;
45252;SDS011;63171;50.520;30.486;2022-12-11T04:59:52;23.85;;;15.75;;
45252;SDS011;63171;50.520;30.486;2022-12-11T05:00:42;22.85;;;15.63;;
45252;SDS011;63171;50.520;30.486;2022-12-11T05:01:33;32.15;;;15.77;;
45252;SDS011;63171;50.520;30.486;2022-12-11T05:02:23;23.33;;;15.10;;
45252;SDS011;63171;50.520;30.486;2022-12-11T05:03:14;23.67;;;14.80;;
45252;SDS011;63171;50.520;30.486;2022-12-11T05:04:03;26.88;;;16.23;;
45252;SDS011;63171;50.520;30.486;2022-12-11T05:04:54;22.27;;;14.40;;
45252;SDS011;63171;50.520;30.486;2022-12-11T05:05:46;22.63;;;14.80;;
45252;SDS011;63171;50.520;30.486;2022-12-11T05:06:36;20.88;;;14.80;;
45252;SDS011;63171;50.520;30.486;2022-12-11T05:07:27;50.42;;;16.20;;
45252;SDS011;63171;50.520;30.486;2022-12-11T05:08:17;26.45;;;15.18;;
45252;SDS011;63171;50.520;30.486;2022-12-11T05:09:09;16.92;;;14.27;;
45252;SDS011;63171;50.520;30.486;2022-12-11T05:09:59;30.63;;;15.07;;
45252;SDS011;63171;50.520;30.486;2022-12-11T05:10:53;24.02;;;13.50;;
45252;SDS011;63171;50.520;30.486;2022-12-11T05:11:46;21.35;;;14.15;;
45252;SDS011;63171;50.520;30.486;2022-12-11T05:12:37;21.90;;;13.02;;
45252;SDS011;63171;50.520;30.486;2022-12-11T05:13:28;18.33;;;13.75;;
45252;SDS011;63171;50.520;30.486;2022-12-11T05:14:19;23.83;;;13.48;;
45252;SDS011;63171;50.520;30.486;2022-12-11T05:15:09;20.25;;;14.13;;
45252;SDS011;63171;50.520;30.486;2022-12-11T05:16:02;20.80;;;13.60;;
45252;SDS011;63171;50.520;30.486;2022-12-11T05:16:52;17.77;;;14.82;;
45252;SDS011;63171;50.520;30.486;2022-12-11T05:17:43;24.95;;;15.05;;
45252;SDS011;63171;50.520;30.486;2022-12-11T05:18:33;21.50;;;14.45;;
45252;SDS011;63171;50.520;30.486;2022-12-11T05:19:24;22.15;;;13.52;;
45252;SDS011;63171;50.520;30.486;2022-12-11T05:20:14;23.30;;;13.07;;
45252;SDS011;63171;50.520;30.486;2022-12-11T05:21:05;25.00;;;15.00;;
45252;SDS011;63171;50.520;30.486;2022-12-11T05:21:57;35.38;;;14.27;;
45252;SDS011;63171;50.520;30.486;2022-12-11T05:22:48;19.00;;;13.93;;
45252;SDS011;63171;50.520;30.486;2022-12-11T05:23:37;30.27;;;14.35;;
45252;SDS011;63171;50.520;30.486;2022-12-11T05:24:28;25.17;;;14.10;;
45252;SDS011;63171;50.520;30.486;2022-12-11T05:25:18;22.85;;;13.55;;
45252;SDS011;63171;50.520;30.486;2022-12-11T05:26:10;28.20;;;14.18;;
45252;SDS011;63171;50.520;30.486;2022-12-11T05:27:02;26.02;;;14.98;;
45252;SDS011;63171;50.520;30.486;2022-12-11T05:27:52;20.27;;;14.05;;
45252;SDS011;63171;50.520;30.486;2022-12-11T05:28:44;25.55;;;13.27;;
45252;SDS011;63171;50.520;30.486;2022-12-11T05:29:35;30.38;;;14.13;;
45252;SDS011;63171;50.520;30.486;2022-12-11T05:31:17;16.83;;;12.80;;
45252;SDS011;63171;50.520;30.486;2022-12-11T05:32:08;28.98;;;14.55;;
45252;SDS011;63171;50.520;30.486;2022-12-11T05:32:59;17.48;;;13.85;;
45252;SDS011;63171;50.520;30.486;2022-12-11T05:33:48;24.88;;;13.20;;
45252;SDS011;63171;50.520;30.486;2022-12-11T05:34:40;57.88;;;15.75;;
45252;SDS011;63171;50.520;30.486;2022-12-11T05:35:29;15.57;;;12.57;;
45252;SDS011;63171;50.520;30.486;2022-12-11T05:36:21;27.65;;;15.00;;
45252;SDS011;63171;50.520;30.486;2022-12-11T05:37:11;36.38;;;14.73;;
45252;SDS011;63171;50.520;30.486;2022-12-11T05:38:02;31.85;;;14.00;;
45252;SDS011;63171;50.520;30.486;2022-12-11T05:38:52;31.50;;;13.55;;
45252;SDS011;63171;50.520;30.486;2022-12-11T05:39:43;26.10;;;13.07;;
45252;SDS011;63171;50.520;30.486;2022-12-11T05:40:33;28.83;;;12.90;;
45252;SDS011;63171;50.520;30.486;2022-12-11T05:41:25;23.38;;;14.00;;
45252;SDS011;63171;50.520;30.486;2022-12-11T05:42:16;28.75;;;13.25;;
45252;SDS011;63171;50.520;30.486;2022-12-11T05:43:06;69.60;;;16.02;;
45252;SDS011;63171;50.520;30.486;2022-12-11T05:43:58;28.90;;;15.35;;
45252;SDS011;63171;50.520;30.486;2022-12-11T05:44:48;33.53;;;14.10;;
45252;SDS011;63171;50.520;30.486;2022-12-11T05:45:38;55.65;;;13.93;;
45252;SDS011;63171;50.520;30.486;2022-12-11T05:46:29;18.77;;;13.75;;
45252;SDS011;63171;50.520;30.486;2022-12-11T05:48:09;52.45;;;14.13;;
45252;SDS011;63171;50.520;30.486;2022-12-11T05:49:00;31.73;;;12.55;;
45252;SDS011;63171;50.520;30.486;2022-12-11T05:49:51;60.28;;;14.52;;
45252;SDS011;63171;50.520;30.486;2022-12-11T05:50:41;63.90;;;15.40;;
45252;SDS011;63171;50.520;30.486;2022-12-11T05:51:31;90.75;;;15.48;;
45252;SDS011;63171;50.520;30.486;2022-12-11T05:52:22;45.28;;;13.93;;
45252;SDS011;63171;50.520;30.486;2022-12-11T05:53:12;59.50;;;15.57;;
45252;SDS011;63171;50.520;30.486;2022-12-11T05:54:02;40.10;;;12.77;;
45252;SDS011;63171;50.520;30.486;2022-12-11T05:54:54;66.88;;;14.43;;
45252;SDS011;63171;50.520;30.486;2022-12-11T05:55:44;35.38;;;12.25;;
45252;SDS011;63171;50.520;30.486;2022-12-11T05:56:34;71.68;;;14.00;;
45252;SDS011;63171;50.520;30.486;2022-12-11T05:58:15;49.65;;;13.30;;
45252;SDS011;63171;50.520;30.486;2022-12-11T05:59:06;20.77;;;11.30;;
45252;SDS011;63171;50.520;30.486;2022-12-11T05:59:57;26.08;;;13.05;;
45252;SDS011;63171;50.520;30.486;2022-12-11T06:00:47;21.33;;;12.63;;
45252;SDS011;63171;50.520;30.486;2022-12-11T06:01:38;15.38;;;11.35;;
45252;SDS011;63171;50.520;30.486;2022-12-11T06:02:29;33.58;;;13.07;;
45252;SDS011;63171;50.520;30.486;2022-12-11T06:03:19;22.88;;;12.20;;
45252;SDS011;63171;50.520;30.486;2022-12-11T06:04:10;28.45;;;12.68;;
45252;SDS011;63171;50.520;30.486;2022-12-11T06:05:01;26.88;;;12.32;;
45252;SDS011;63171;50.520;30.486;2022-12-11T06:05:52;25.20;;;12.80;;
45252;SDS011;63171;50.520;30.486;2022-12-11T06:06:41;22.92;;;13.23;;
45252;SDS011;63171;50.520;30.486;2022-12-11T06:07:33;22.05;;;11.70;;
45252;SDS011;63171;50.520;30.486;2022-12-11T06:08:23;36.60;;;13.30;;
45252;SDS011;63171;50.520;30.486;2022-12-11T06:09:14;21.98;;;12.15;;
45252;SDS011;63171;50.520;30.486;2022-12-11T06:10:05;22.55;;;13.15;;
45252;SDS011;63171;50.520;30.486;2022-12-11T06:10:56;46.88;;;16.80;;
45252;SDS011;63171;50.520;30.486;2022-12-11T06:11:46;69.13;;;16.40;;
45252;SDS011;63171;50.520;30.486;2022-12-11T06:12:37;21.40;;;12.40;;
45252;SDS011;63171;50.520;30.486;2022-12-11T06:13:27;32.47;;;13.40;;
45252;SDS011;63171;50.520;30.486;2022-12-11T06:14:19;51.13;;;15.10;;
45252;SDS011;63171;50.520;30.486;2022-12-11T06:15:09;19.75;;;11.65;;
45252;SDS011;63171;50.520;30.486;2022-12-11T06:16:00;53.70;;;15.40;;
45252;SDS011;63171;50.520;30.486;2022-12-11T06:16:50;28.05;;;13.95;;
45252;SDS011;63171;50.520;30.486;2022-12-11T06:17:41;27.08;;;13.38;;
45252;SDS011;63171;50.520;30.486;2022-12-11T06:18:31;22.10;;;14.05;;
45252;SDS011;63171;50.520;30.486;2022-12-11T06:19:25;66.63;;;16.23;;
45252;SDS011;63171;50.520;30.486;2022-12-11T06:20:15;60.05;;;15.32;;
45252;SDS011;63171;50.520;30.486;2022-12-11T06:21:10;109.57;;;17.35;;
45252;SDS011;63171;50.520;30.486;2022-12-11T06:22:03;49.88;;;13.57;;
45252;SDS011;63171;50.520;30.486;2022-12-11T06:22:53;111.03;;;17.90;;
45252;SDS011;63171;50.520;30.486;2022-12-11T06:23:43;85.85;;;15.20;;
45252;SDS011;63171;50.520;30.486;2022-12-11T06:24:35;118.38;;;18.35;;
45252;SDS011;63171;50.520;30.486;2022-12-11T06:25:25;136.82;;;17.98;;
45252;SDS011;63171;50.520;30.486;2022-12-11T06:26:17;104.93;;;16.77;;
45252;SDS011;63171;50.520;30.486;2022-12-11T06:27:07;143.93;;;18.92;;
45252;SDS011;63171;50.520;30.486;2022-12-11T06:27:58;86.90;;;15.43;;
45252;SDS011;63171;50.520;30.486;2022-12-11T06:28:48;39.67;;;14.93;;
45252;SDS011;63171;50.520;30.486;2022-12-11T06:29:41;111.55;;;16.90;;
45252;SDS011;63171;50.520;30.486;2022-12-11T06:30:30;65.07;;;14.05;;
45252;SDS011;63171;50.520;30.486;2022-12-11T06:31:21;29.33;;;12.77;;
45252;SDS011;63171;50.520;30.486;2022-12-11T06:32:11;27.23;;;12.60;;
45252;SDS011;63171;50.520;30.486;2022-12-11T06:33:02;45.10;;;13.80;;
45252;SDS011;63171;50.520;30.486;2022-12-11T06:33:52;30.48;;;13.10;;
45252;SDS011;63171;50.520;30.486;2022-12-11T06:34:43;41.60;;;13.45;;
45252;SDS011;63171;50.520;30.486;2022-12-11T06:35:32;71.32;;;15.27;;
45252;SDS011;63171;50.520;30.486;2022-12-11T06:36:23;52.28;;;15.10;;
45252;SDS011;63171;50.520;30.486;2022-12-11T06:37:13;85.85;;;17.50;;
45252;SDS011;63171;50.520;30.486;2022-12-11T06:38:04;48.22;;;13.95;;
45252;SDS011;63171;50.520;30.486;2022-12-11T06:38:53;57.80;;;14.52;;
45252;SDS011;63171;50.520;30.486;2022-12-11T06:39:44;76.10;;;16.30;;
45252;SDS011;63171;50.520;30.486;2022-12-11T06:40:34;56.25;;;15.48;;
45252;SDS011;63171;50.520;30.486;2022-12-11T06:41:25;67.00;;;16.10;;
45252;SDS011;63171;50.520;30.486;2022-12-11T06:42:15;68.03;;;14.55;;
45252;SDS011;63171;50.520;30.486;2022-12-11T06:43:06;45.88;;;14.35;;
45252;SDS011;63171;50.520;30.486;2022-12-11T06:43:55;82.13;;;16.52;;
45252;SDS011;63171;50.520;30.486;2022-12-11T06:44:48;23.23;;;13.38;;
45252;SDS011;63171;50.520;30.486;2022-12-11T06:45:37;44.00;;;14.77;;
45252;SDS011;63171;50.520;30.486;2022-12-11T06:46:28;69.55;;;16.45;;
45252;SDS011;63171;50.520;30.486;2022-12-11T06:47:18;51.63;;;16.48;;
45252;SDS011;63171;50.520;30.486;2022-12-11T06:48:08;23.80;;;13.68;;
45252;SDS011;63171;50.520;30.486;2022-12-11T06:48:58;91.53;;;16.83;;
45252;SDS011;63171;50.520;30.486;2022-12-11T06:49:49;72.47;;;16.95;;
45252;SDS011;63171;50.520;30.486;2022-12-11T06:50:38;47.33;;;15.95;;
45252;SDS011;63171;50.520;30.486;2022-12-11T06:51:29;74.75;;;16.92;;
45252;SDS011;63171;50.520;30.486;2022-12-11T06:52:19;165.35;;;22.70;;
45252;SDS011;63171;50.520;30.486;2022-12-11T06:53:11;212.60;;;26.42;;
45252;SDS011;63171;50.520;30.486;2022-12-11T06:54:03;34.38;;;12.38;;
45252;SDS011;63171;50.520;30.486;2022-12-11T06:54:54;79.55;;;17.10;;
45252;SDS011;63171;50.520;30.486;2022-12-11T06:55:45;102.85;;;19.13;;
45252;SDS011;63171;50.520;30.486;2022-12-11T06:56:35;108.78;;;16.80;;
45252;SDS011;63171;50.520;30.486;2022-12-11T06:57:25;71.03;;;17.38;;
45252;SDS011;63171;50.520;30.486;2022-12-11T06:58:16;118.80;;;20.38;;
45252;SDS011;63171;50.520;30.486;2022-12-11T06:59:06;136.50;;;19.58;;
45252;SDS011;63171;50.520;30.486;2022-12-11T07:00:02;38.75;;;13.93;;
45252;SDS011;63171;50.520;30.486;2022-12-11T07:00:52;26.98;;;14.02;;
45252;SDS011;63171;50.520;30.486;2022-12-11T10:15:25;308.80;;;44.22;;
45252;SDS011;63171;50.520;30.486;2022-12-11T10:16:28;45.40;;;22.08;;
45252;SDS011;63171;50.520;30.486;2022-12-11T10:17:24;76.72;;;25.90;;
45252;SDS011;63171;50.520;30.486;2022-12-11T10:18:19;152.40;;;36.40;;
45252;SDS011;63171;50.520;30.486;2022-12-11T10:19:13;168.85;;;35.78;;
45252;SDS011;63171;50.520;30.486;2022-12-11T10:20:13;59.10;;;27.40;;
45252;SDS011;63171;50.520;30.486;2022-12-11T10:21:09;32.67;;;23.05;;
45252;SDS011;63171;50.520;30.486;2022-12-11T10:22:02;40.95;;;22.95;;
45252;SDS011;63171;50.520;30.486;2022-12-11T10:23:45;31.27;;;20.35;;
45252;SDS011;63171;50.520;30.486;2022-12-11T10:24:45;51.08;;;21.35;;
45252;SDS011;63171;50.520;30.486;2022-12-11T10:25:44;26.70;;;16.48;;
45252;SDS011;63171;50.520;30.486;2022-12-11T10:26:38;26.35;;;17.27;;
45252;SDS011;63171;50.520;30.486;2022-12-11T10:27:30;25.80;;;17.33;;
45252;SDS011;63171;50.520;30.486;2022-12-11T10:28:21;22.92;;;15.45;;
45252;SDS011;63171;50.520;30.486;2022-12-11T10:29:13;25.13;;;15.35;;
45252;SDS011;63171;50.520;30.486;2022-12-11T10:30:11;24.77;;;14.98;;
45252;SDS011;63171;50.520;30.486;2022-12-11T10:31:09;24.38;;;16.05;;
45252;SDS011;63171;50.520;30.486;2022-12-11T10:32:05;22.60;;;16.80;;
45252;SDS011;63171;50.520;30.486;2022-12-11T10:33:12;22.13;;;15.10;;
45252;SDS011;63171;50.520;30.486;2022-12-11T10:34:09;18.50;;;12.57;;
45252;SDS011;63171;50.520;30.486;2022-12-11T10:35:01;26.30;;;13.95;;
45252;SDS011;63171;50.520;30.486;2022-12-11T10:35:56;16.42;;;12.43;;
45252;SDS011;63171;50.520;30.486;2022-12-11T10:36:47;21.90;;;13.75;;
45252;SDS011;63171;50.520;30.486;2022-12-11T10:37:38;17.38;;;13.32;;
45252;SDS011;63171;50.520;30.486;2022-12-11T10:38:29;17.40;;;13.80;;
45252;SDS011;63171;50.520;30.486;2022-12-11T10:39:21;17.85;;;13.63;;
45252;SDS011;63171;50.520;30.486;2022-12-11T10:40:11;14.23;;;11.85;;
45252;SDS011;63171;50.520;30.486;2022-12-11T10:41:04;14.35;;;12.02;;
45252;SDS011;63171;50.520;30.486;2022-12-11T10:42:00;15.13;;;11.57;;
45252;SDS011;63171;50.520;30.486;2022-12-11T10:43:03;18.48;;;13.48;;
45252;SDS011;63171;50.520;30.486;2022-12-11T10:43:53;14.02;;;11.80;;
45252;SDS011;63171;50.520;30.486;2022-12-11T10:44:54;16.20;;;11.25;;
45252;SDS011;63171;50.520;30.486;2022-12-11T10:45:51;14.88;;;12.00;;
45252;SDS011;63171;50.520;30.486;2022-12-11T10:46:44;16.88;;;11.38;;
45252;SDS011;63171;50.520;30.486;2022-12-11T10:47:34;15.20;;;10.85;;
45252;SDS011;63171;50.520;30.486;2022-12-11T10:48:25;13.70;;;11.65;;
45252;SDS011;63171;50.520;30.486;2022-12-11T10:49:22;12.63;;;11.18;;
45252;SDS011;63171;50.520;30.486;2022-12-11T10:50:21;14.95;;;11.80;;
45252;SDS011;63171;50.520;30.486;2022-12-11T10:51:13;15.00;;;11.20;;
45252;SDS011;63171;50.520;30.486;2022-12-11T10:52:08;15.32;;;12.05;;
45252;SDS011;63171;50.520;30.486;2022-12-11T10:52:58;13.15;;;11.55;;
45252;SDS011;63171;50.520;30.486;2022-12-11T10:53:50;21.75;;;11.77;;
45252;SDS011;63171;50.520;30.486;2022-12-11T10:54:42;13.95;;;11.05;;
45252;SDS011;63171;50.520;30.486;2022-12-11T10:55:38;16.48;;;12.20;;
45252;SDS011;63171;50.520;30.486;2022-12-11T10:56:33;13.32;;;10.23;;
45252;SDS011;63171;50.520;30.486;2022-12-11T10:57:27;11.65;;;10.45;;
45252;SDS011;63171;50.520;30.486;2022-12-11T10:58:18;14.63;;;11.23;;
45252;SDS011;63171;50.520;30.486;2022-12-11T10:59:12;14.38;;;11.45;;
45252;SDS011;63171;50.520;30.486;2022-12-11T11:00:25;13.95;;;11.70;;
45252;SDS011;63171;50.520;30.486;2022-12-11T11:01:20;14.60;;;11.30;;
45252;SDS011;63171;50.520;30.486;2022-12-11T11:02:18;17.15;;;12.93;;
45252;SDS011;63171;50.520;30.486;2022-12-11T11:03:19;16.33;;;13.63;;
45252;SDS011;63171;50.520;30.486;2022-12-11T11:04:13;15.80;;;12.98;;
45252;SDS011;63171;50.520;30.486;2022-12-11T11:05:11;18.52;;;12.70;;
45252;SDS011;63171;50.520;30.486;2022-12-11T11:06:05;19.48;;;14.40;;
45252;SDS011;63171;50.520;30.486;2022-12-11T11:07:07;19.20;;;15.27;;
45252;SDS011;63171;50.520;30.486;2022-12-11T11:08:12;21.50;;;16.02;;
45252;SDS011;63171;50.520;30.486;2022-12-11T11:10:18;22.73;;;17.30;;
45252;SDS011;63171;50.520;30.486;2022-12-11T11:11:12;17.60;;;14.93;;
45252;SDS011;63171;50.520;30.486;2022-12-11T11:12:20;22.40;;;17.02;;
45252;SDS011;63171;50.520;30.486;2022-12-11T11:13:12;29.08;;;19.80;;
45252;SDS011;63171;50.520;30.486;2022-12-11T11:14:03;20.67;;;16.55;;
45252;SDS011;63171;50.520;30.486;2022-12-11T11:14:58;21.45;;;16.02;;
45252;SDS011;63171;50.520;30.486;2022-12-11T11:15:56;22.83;;;18.33;;
45252;SDS011;63171;50.520;30.486;2022-12-11T11:16:48;18.38;;;16.25;;
45252;SDS011;63171;50.520;30.486;2022-12-11T11:17:43;18.58;;;16.60;;
45252;SDS011;63171;50.520;30.486;2022-12-11T11:18:36;19.95;;;17.80;;
45252;SDS011;63171;50.520;30.486;2022-12-11T11:19:30;20.92;;;17.48;;
45252;SDS011;63171;50.520;30.486;2022-12-11T11:20:23;22.10;;;18.35;;
45252;SDS011;63171;50.520;30.486;2022-12-11T11:21:15;22.95;;;19.77;;
45252;SDS011;63171;50.520;30.486;2022-12-11T11:22:07;22.27;;;18.67;;
45252;SDS011;63171;50.520;30.486;2022-12-11T11:23:02;21.42;;;18.00;;
45252;SDS011;63171;50.520;30.486;2022-12-11T11:24:00;23.58;;;19.02;;
45252;SDS011;63171;50.520;30.486;2022-12-11T11:24:51;21.90;;;17.63;;
45252;SDS011;63171;50.520;30.486;2022-12-11T11:25:48;21.45;;;19.15;;
45252;SDS011;63171;50.520;30.486;2022-12-11T11:26:39;25.05;;;17.60;;
45252;SDS011;63171;50.520;30.486;2022-12-11T11:27:32;18.45;;;16.48;;
45252;SDS011;63171;50.520;30.486;2022-12-11T11:28:26;21.65;;;18.83;;
45252;SDS011;63171;50.520;30.486;2022-12-11T11:29:21;20.02;;;17.90;;
45252;SDS011;63171;50.520;30.486;2022-12-11T11:30:17;22.27;;;18.60;;
45252;SDS011;63171;50.520;30.486;2022-12-11T11:31:14;20.70;;;17.27;;
45252;SDS011;63171;50.520;30.486;2022-12-11T11:32:13;20.10;;;17.15;;
45252;SDS011;63171;50.520;30.486;2022-12-11T11:33:11;20.55;;;18.30;;
45252;SDS011;63171;50.520;30.486;2022-12-11T11:34:05;22.38;;;18.70;;
45252;SDS011;63171;50.520;30.486;2022-12-11T11:35:12;22.70;;;18.42;;
45252;SDS011;63171;50.520;30.486;2022-12-11T11:36:16;21.63;;;17.25;;
45252;SDS011;63171;50.520;30.486;2022-12-11T11:37:23;21.05;;;15.77;;
45252;SDS011;63171;50.520;30.486;2022-12-11T11:38:20;21.52;;;17.70;;
45252;SDS011;63171;50.520;30.486;2022-12-11T11:39:14;21.67;;;17.92;;
45252;SDS011;63171;50.520;30.486;2022-12-11T11:40:15;25.42;;;18.85;;
45252;SDS011;63171;50.520;30.486;2022-12-11T11:41:11;20.52;;;18.33;;
45252;SDS011;63171;50.520;30.486;2022-12-11T11:42:09;21.13;;;17.35;;
45252;SDS011;63171;50.520;30.486;2022-12-11T11:43:09;21.60;;;17.85;;
45252;SDS011;63171;50.520;30.486;2022-12-11T11:44:08;20.92;;;18.40;;
45252;SDS011;63171;50.520;30.486;2022-12-11T11:45:03;24.25;;;19.30;;
45252;SDS011;63171;50.520;30.486;2022-12-11T11:45:59;23.95;;;17.70;;
45252;SDS011;63171;50.520;30.486;2022-12-11T11:46:57;21.08;;;18.45;;
45252;SDS011;63171;50.520;30.486;2022-12-11T11:47:53;21.10;;;17.50;;
45252;SDS011;63171;50.520;30.486;2022-12-11T11:48:52;24.05;;;19.00;;
45252;SDS011;63171;50.520;30.486;2022-12-11T11:49:49;21.13;;;16.83;;
45252;SDS011;63171;50.520;30.486;2022-12-11T11:50:48;21.15;;;18.95;;
45252;SDS011;63171;50.520;30.486;2022-12-11T11:51:40;23.92;;;18.00;;
45252;SDS011;63171;50.520;30.486;2022-12-11T11:52:35;19.40;;;17.33;;
45252;SDS011;63171;50.520;30.486;2022-12-11T11:53:33;19.30;;;16.60;;
45252;SDS011;63171;50.520;30.486;2022-12-11T11:54:29;22.35;;;18.58;;
45252;SDS011;63171;50.520;30.486;2022-12-11T11:55:27;20.48;;;17.92;;
45252;SDS011;63171;50.520;30.486;2022-12-11T11:56:29;23.15;;;18.60;;
45252;SDS011;63171;50.520;30.486;2022-12-11T11:57:26;20.38;;;17.60;;
45252;SDS011;63171;50.520;30.486;2022-12-11T11:58:21;26.98;;;18.00;;
45252;SDS011;63171;50.520;30.486;2022-12-11T11:59:17;21.48;;;16.52;;
45252;SDS011;63171;50.520;30.486;2022-12-11T12:00:16;19.00;;;14.98;;
45252;SDS011;63171;50.520;30.486;2022-12-11T12:01:11;20.60;;;16.83;;
45252;SDS011;63171;50.520;30.486;2022-12-11T12:02:08;19.05;;;15.63;;
45252;SDS011;63171;50.520;30.486;2022-12-11T12:03:07;20.92;;;17.00;;
45252;SDS011;63171;50.520;30.486;2022-12-11T12:04:01;23.55;;;15.30;;
45252;SDS011;63171;50.520;30.486;2022-12-11T12:04:53;18.60;;;16.52;;
45252;SDS011;63171;50.520;30.486;2022-12-11T12:05:44;20.70;;;16.52;;